Time;durP1;ratioP1;P1;durP2;ratioP2;P2;SDS_P1;SDS_P2;PMS_P1;PMS_P2;Temp;Humidity;BMP_temperature;BMP_pressure;BME280_temperature;BME280_humidity;BME280_pressure;Samples;Min_cycle;Max_cycle;Signal;HPM_P1;HPM_P2
2021/01/15 00:01:48;;;;;;;15.43;7.77;;;;;;;1.21;100.00;98005.59;5134815;27;20206;-70
2021/01/15 00:04:14;;;;;;;14.07;7.67;;;;;;;1.22;100.00;98009.13;5138116;27;20206;-71
2021/01/15 00:06:40;;;;;;;11.83;7.00;;;;;;;1.14;100.00;98018.69;5102511;27;20682;-70
2021/01/15 00:09:06;;;;;;;12.23;7.37;;;;;;;1.20;100.00;98016.75;5119280;27;20670;-70
2021/01/15 00:11:33;;;;;;;14.30;7.10;;;;;;;1.26;100.00;98011.00;5133769;27;20199;-71
2021/01/15 00:14:00;;;;;;;20.53;7.30;;;;;;;1.20;100.00;98009.44;5113962;27;20271;-72
2021/01/15 00:16:28;;;;;;;13.30;6.60;;;;;;;1.12;100.00;98015.44;5132737;27;20699;-71
2021/01/15 00:18:56;;;;;;;11.83;7.07;;;;;;;0.70;100.00;98017.78;5133210;27;20223;-72
2021/01/15 00:21:31;;;;;;;9.57;6.53;;;;;;;0.92;100.00;98018.25;5114628;27;20227;-71
2021/01/15 00:23:58;;;;;;;12.13;6.57;;;;;;;1.02;100.00;98004.63;5118257;27;20230;-71
2021/01/15 00:26:27;;;;;;;18.50;6.93;;;;;;;0.74;100.00;98014.25;5133485;27;20679;-71
2021/01/15 00:28:54;;;;;;;17.97;7.60;;;;;;;0.61;100.00;98014.03;5133594;27;20317;-71
2021/01/15 00:31:30;;;;;;;12.67;7.17;;;;;;;0.87;100.00;98010.13;5114780;27;20231;-71
2021/01/15 00:33:56;;;;;;;11.40;6.80;;;;;;;0.74;100.00;98016.16;5131919;27;20675;-71
2021/01/15 00:36:22;;;;;;;11.57;6.83;;;;;;;0.85;100.00;98015.03;5098039;27;20321;-70
2021/01/15 00:38:49;;;;;;;11.33;6.67;;;;;;;0.84;100.00;98008.78;5115334;27;20270;-70
2021/01/15 00:41:15;;;;;;;12.53;6.60;;;;;;;0.87;100.00;98015.56;5133854;27;20203;-71
2021/01/15 00:43:41;;;;;;;11.57;6.33;;;;;;;0.90;100.00;98012.28;5132826;27;20207;-70
2021/01/15 00:46:13;;;;;;;15.40;6.43;;;;;;;0.94;100.00;98013.34;5133386;27;20224;-70
2021/01/15 00:48:40;;;;;;;16.70;6.60;;;;;;;0.94;100.00;98011.47;5133279;27;20223;-70
2021/01/15 00:51:09;;;;;;;9.60;6.37;;;;;;;0.94;100.00;98018.78;5133268;27;20207;-71
2021/01/15 00:53:36;;;;;;;10.37;6.03;;;;;;;0.84;100.00;98013.41;5132692;27;20235;-72
2021/01/15 00:56:02;;;;;;;12.87;6.13;;;;;;;0.75;100.00;98025.91;5115094;27;20276;-71
2021/01/15 00:58:29;;;;;;;12.97;6.23;;;;;;;0.77;100.00;98013.69;5114808;27;20227;-70
2021/01/15 01:34:19;;;;;;;12.27;7.27;;;;;;;0.61;100.00;98033.84;5109542;27;20544;-71
2021/01/15 01:36:45;;;;;;;12.97;6.77;;;;;;;0.38;100.00;98029.03;5109793;28;20294;-71
2021/01/15 01:39:11;;;;;;;11.80;7.70;;;;;;;0.27;100.00;98040.16;5109581;28;20230;-71
2021/01/15 01:41:40;;;;;;;14.60;6.70;;;;;;;0.14;100.00;98046.97;5111600;28;20252;-71
2021/01/15 01:44:09;;;;;;;14.27;6.93;;;;;;;0.07;100.00;98053.75;5111691;28;20223;-70
2021/01/15 01:46:38;;;;;;;11.43;7.00;;;;;;;0.09;100.00;98055.09;5114532;28;20298;-71
2021/01/15 01:49:04;;;;;;;11.80;6.87;;;;;;;0.07;100.00;98051.03;5109793;28;20223;-70
2021/01/15 01:51:31;;;;;;;11.83;6.53;;;;;;;0.09;100.00;98052.41;5109021;28;20320;-70
2021/01/15 01:53:58;;;;;;;11.80;6.83;;;;;;;0.12;100.00;98048.31;5108472;28;20228;-70
2021/01/15 01:56:24;;;;;;;11.07;7.00;;;;;;;0.12;100.00;98041.00;5108842;28;20294;-71
2021/01/15 01:58:51;;;;;;;14.93;6.90;;;;;;;-0.09;100.00;98047.50;5108700;28;20318;-71
2021/01/15 02:01:17;;;;;;;15.47;7.17;;;;;;;-0.07;100.00;98048.03;5109015;28;20621;-71
2021/01/15 02:03:43;;;;;;;12.73;6.93;;;;;;;-0.07;100.00;98046.16;5108189;28;20848;-71
2021/01/15 02:06:14;;;;;;;13.90;7.30;;;;;;;-0.07;100.00;98046.16;5108880;28;20294;-71
2021/01/15 02:08:42;;;;;;;9.90;6.90;;;;;;;-0.03;100.00;98054.56;5108633;28;20313;-70
2021/01/15 02:11:18;;;;;;;13.77;7.70;;;;;;;0.05;100.00;98050.50;5108934;28;20249;-70
2021/01/15 02:13:51;;;;;;;12.23;7.03;;;;;;;0.18;100.00;98052.66;5108033;28;20219;-71
2021/01/15 02:16:21;;;;;;;11.83;7.13;;;;;;;0.02;100.00;98056.47;5107491;28;20294;-71
2021/01/15 02:19:00;;;;;;;11.10;6.77;;;;;;;0.07;100.00;98054.56;5108699;28;20228;-71
2021/01/15 02:22:04;;;;;;;14.80;7.13;;;;;;;0.06;100.00;98049.38;5107432;28;20665;-70
2021/01/15 02:24:33;;;;;;;10.93;7.00;;;;;;;-0.08;100.00;98054.56;5087374;28;20570;-70
2021/01/15 02:27:19;;;;;;;14.27;7.77;;;;;;;-0.16;100.00;98047.78;5088383;28;20228;-71
2021/01/15 02:30:24;;;;;;;12.80;7.40;;;;;;;-0.06;100.00;98053.22;5088298;28;20291;-72
2021/01/15 02:32:50;;;;;;;14.10;7.57;;;;;;;0.02;100.00;98043.69;5087204;28;20295;-71
2021/01/15 02:35:58;;;;;;;16.97;7.20;;;;;;;0.08;100.00;98045.34;5086779;28;20361;-71
2021/01/15 02:38:33;;;;;;;16.23;7.90;;;;;;;0.08;100.00;98052.66;5086928;28;20339;-71
2021/01/15 02:41:12;;;;;;;12.60;7.13;;;;;;;0.06;100.00;98052.09;5087871;28;20630;-70
2021/01/15 02:43:41;;;;;;;11.17;7.00;;;;;;;0.07;100.00;98054.56;5085869;28;20291;-71
2021/01/15 02:46:12;;;;;;;12.30;7.47;;;;;;;-0.06;100.00;98052.41;5056943;28;20201;-71
2021/01/15 02:48:41;;;;;;;13.20;6.60;;;;;;;-0.10;100.00;98054.84;5074933;28;20225;-71
2021/01/15 02:51:07;;;;;;;14.10;7.37;;;;;;;-0.14;100.00;98061.88;5074905;28;20292;-70
2021/01/15 02:53:34;;;;;;;10.50;6.90;;;;;;;-0.09;100.00;98056.44;5073634;28;20252;-70
2021/01/15 02:56:00;;;;;;;13.60;7.27;;;;;;;0.01;100.00;98058.34;5074136;28;20289;-70
2021/01/15 02:58:26;;;;;;;12.60;7.33;;;;;;;-0.09;100.00;98053.75;5074154;28;20233;-72
2021/01/15 03:00:52;;;;;;;11.43;7.43;;;;;;;-0.17;100.00;98050.75;5074020;28;20734;-70
2021/01/15 03:03:31;;;;;;;11.97;7.30;;;;;;;-0.10;100.00;98046.69;5073317;28;20246;-70
2021/01/15 03:06:06;;;;;;;13.63;7.53;;;;;;;-0.34;100.00;98061.03;5074001;28;20205;-71
2021/01/15 03:08:33;;;;;;;14.20;6.87;;;;;;;-0.22;100.00;98065.13;5073662;28;20674;-71
2021/01/15 03:11:04;;;;;;;10.67;6.90;;;;;;;-0.24;100.00;98061.06;5075176;28;20283;-70
2021/01/15 03:13:31;;;;;;;13.07;7.00;;;;;;;-0.27;100.00;98056.97;5093406;28;20224;-70
2021/01/15 03:16:01;;;;;;;10.77;6.80;;;;;;;-0.22;100.00;98065.13;5094010;28;20283;-70
2021/01/15 03:18:30;;;;;;;16.17;7.33;;;;;;;-0.24;100.00;98061.84;5092814;28;20259;-69
2021/01/15 03:21:01;;;;;;;12.43;6.77;;;;;;;-0.38;100.00;98068.91;5094268;28;20291;-70
2021/01/15 03:23:28;;;;;;;17.00;7.20;;;;;;;-0.44;100.00;98061.84;5095779;28;20246;-72
2021/01/15 03:25:55;;;;;;;11.33;6.93;;;;;;;-0.39;100.00;98064.56;5097835;28;20543;-72
2021/01/15 03:28:21;;;;;;;16.53;7.33;;;;;;;-0.28;100.00;98073.53;5093865;28;20361;-71
2021/01/15 03:30:48;;;;;;;13.00;7.87;;;;;;;-0.56;100.00;98064.00;5093604;28;20696;-71
2021/01/15 03:33:14;;;;;;;11.80;7.30;;;;;;;-0.67;100.00;98069.63;5092611;28;20229;-71
2021/01/15 03:35:40;;;;;;;17.33;6.63;;;;;;;-0.89;100.00;98075.28;5093435;28;20244;-70
2021/01/15 03:38:08;;;;;;;13.70;7.67;;;;;;;-1.06;100.00;98063.84;5093270;28;20224;-71
2021/01/15 03:40:39;;;;;;;12.07;7.03;;;;;;;-0.93;100.00;98063.34;5093498;28;20681;-70
2021/01/15 03:43:19;;;;;;;13.77;7.63;;;;;;;-0.95;100.00;98075.53;5092816;28;20827;-70
2021/01/15 03:45:47;;;;;;;15.53;7.23;;;;;;;-0.94;100.00;98085.25;5087051;28;20205;-70
2021/01/15 03:48:14;;;;;;;14.30;7.50;;;;;;;-0.91;100.00;98087.47;5086903;28;20259;-70
2021/01/15 03:50:41;;;;;;;16.17;7.53;;;;;;;-0.91;100.00;98082.84;5083728;28;20205;-69
2021/01/15 03:53:07;;;;;;;13.80;7.53;;;;;;;-1.00;100.00;98078.22;5080289;28;20221;-69
2021/01/15 03:55:34;;;;;;;15.20;7.60;;;;;;;-1.07;100.00;98081.97;5071239;28;20248;-71
2021/01/15 03:58:00;;;;;;;15.07;7.83;;;;;;;-1.10;100.00;98090.63;5072659;28;20221;-69
2021/01/15 04:00:29;;;;;;;10.77;7.30;;;;;;;-1.19;100.00;98085.97;5072838;28;20228;-69
2021/01/15 04:02:55;;;;;;;14.20;7.57;;;;;;;-1.02;100.00;98085.78;5072045;28;20647;-70
2021/01/15 04:05:22;;;;;;;10.70;7.50;;;;;;;-1.22;100.00;98084.59;5072850;28;20292;-70
2021/01/15 04:07:48;;;;;;;13.90;7.27;;;;;;;-1.19;100.00;98089.47;5072632;28;20236;-70
2021/01/15 04:10:18;;;;;;;13.27;7.27;;;;;;;-1.02;100.00;98080.38;5072950;28;20209;-70
2021/01/15 04:12:45;;;;;;;11.30;7.63;;;;;;;-0.99;100.00;98079.84;5073891;28;20225;-70
2021/01/15 04:15:16;;;;;;;14.73;7.60;;;;;;;-0.96;100.00;98084.72;5071132;28;20292;-70
2021/01/15 04:17:43;;;;;;;11.03;7.40;;;;;;;-1.17;100.00;98090.03;5071087;28;20779;-69
2021/01/15 04:20:11;;;;;;;11.80;7.80;;;;;;;-1.23;100.00;98090.28;5072837;28;20209;-70
2021/01/15 04:22:39;;;;;;;12.13;7.37;;;;;;;-1.20;100.00;98084.34;5077728;28;20665;-70
2021/01/15 04:25:06;;;;;;;11.90;7.93;;;;;;;-1.20;100.00;98089.75;5092183;28;20287;-71
2021/01/15 04:27:34;;;;;;;13.27;7.57;;;;;;;-1.25;100.00;98093.25;5092899;28;20228;-71
2021/01/15 04:30:02;;;;;;;13.83;7.27;;;;;;;-1.35;100.00;98098.59;5092606;28;20214;-71
2021/01/15 04:32:28;;;;;;;14.40;7.60;;;;;;;-1.14;100.00;98094.13;5091070;28;20659;-71
2021/01/15 04:34:54;;;;;;;17.33;8.07;;;;;;;-1.08;100.00;98093.88;5091909;28;20226;-70
2021/01/15 04:37:20;;;;;;;13.90;7.60;;;;;;;-0.96;100.00;98090.94;5092361;28;20289;-71
2021/01/15 04:39:46;;;;;;;14.97;7.83;;;;;;;-0.95;100.00;98097.19;5091230;28;20287;-71
2021/01/15 04:42:15;;;;;;;18.70;8.03;;;;;;;-1.07;100.00;98094.69;5091985;28;20295;-71
2021/01/15 04:44:41;;;;;;;18.60;8.23;;;;;;;-1.00;100.00;98095.25;5091701;28;20287;-70
2021/01/15 04:47:08;;;;;;;25.20;8.10;;;;;;;-1.36;100.00;98099.69;5092023;28;20295;-71
2021/01/15 04:49:36;;;;;;;17.43;7.97;;;;;;;-1.27;100.00;98103.53;5092038;28;20204;-70
2021/01/15 04:52:03;;;;;;;20.80;8.20;;;;;;;-1.02;100.00;98098.22;5092052;28;20295;-71
2021/01/15 04:54:37;;;;;;;18.50;8.30;;;;;;;-1.27;100.00;98106.25;5090121;28;20308;-71
2021/01/15 04:57:05;;;;;;;15.30;8.27;;;;;;;-1.51;100.00;98106.88;5091934;28;20728;-70
2021/01/15 04:59:48;;;;;;;11.67;8.17;;;;;;;-1.46;100.00;98118.56;5092406;28;20236;-70
2021/01/15 05:02:17;;;;;;;15.83;7.87;;;;;;;-1.98;100.00;98104.13;5091294;28;20232;-69
2021/01/15 05:04:43;;;;;;;13.13;8.20;;;;;;;-1.77;100.00;98119.41;5092447;28;20236;-69
2021/01/15 05:07:11;;;;;;;15.60;7.80;;;;;;;-1.66;100.00;98112.22;5092071;28;20243;-70
2021/01/15 05:09:47;;;;;;;12.50;8.50;;;;;;;-1.39;100.00;98119.16;5092126;28;20265;-71
2021/01/15 05:12:16;;;;;;;15.23;8.10;;;;;;;-1.42;100.00;98113.44;5080071;28;20233;-71
2021/01/15 05:14:48;;;;;;;12.60;7.83;;;;;;;-1.46;100.00;98115.06;5069876;28;20200;-70
2021/01/15 05:17:16;;;;;;;15.43;8.83;;;;;;;-1.40;100.00;98119.41;5071553;28;20257;-70
2021/01/15 05:19:43;;;;;;;16.53;9.17;;;;;;;-1.26;100.00;98123.31;5071432;28;20228;-70
2021/01/15 05:22:11;;;;;;;17.93;8.67;;;;;;;-1.27;100.00;98132.47;5088241;28;20297;-70
2021/01/15 05:24:40;;;;;;;15.50;8.37;;;;;;;-1.26;100.00;98124.09;5091069;28;20291;-70
2021/01/15 05:30:18;;;;;;;14.47;8.50;;;;;;;-1.51;100.00;98136.66;5091676;28;20262;-69
2021/01/15 05:32:44;;;;;;;12.90;8.13;;;;;;;-1.38;100.00;98136.19;5091106;28;20277;-69
2021/01/15 05:35:12;;;;;;;12.53;8.30;;;;;;;-1.44;100.00;98135.34;5090351;28;20291;-70
2021/01/15 05:37:38;;;;;;;14.07;8.40;;;;;;;-1.35;100.00;98135.69;5091470;28;20311;-70
2021/01/15 05:40:05;;;;;;;14.17;8.50;;;;;;;-1.16;100.00;98145.00;5090331;28;20234;-71
2021/01/15 05:42:48;;;;;;;16.07;8.10;;;;;;;-1.51;100.00;98142.06;5091447;28;20243;-70
2021/01/15 05:45:18;;;;;;;13.97;9.27;;;;;;;-1.51;100.00;98158.28;5091596;28;20295;-70
2021/01/15 05:47:46;;;;;;;18.37;9.27;;;;;;;-1.38;100.00;98158.66;5091453;28;20261;-70
2021/01/15 05:50:15;;;;;;;16.57;9.77;;;;;;;-1.42;100.00;98156.72;5090256;28;20232;-70
2021/01/15 05:52:55;;;;;;;14.33;9.03;;;;;;;-1.32;100.00;98151.41;5091250;28;20224;-71
2021/01/15 05:55:25;;;;;;;14.53;9.23;;;;;;;-1.26;100.00;98151.16;5073215;28;20220;-70
2021/01/15 05:57:52;;;;;;;13.37;9.03;;;;;;;-1.32;100.00;98156.81;5091287;28;20310;-71
2021/01/15 06:00:28;;;;;;;13.60;9.00;;;;;;;-1.65;100.00;98162.53;5091387;28;20212;-70
2021/01/15 06:02:56;;;;;;;16.47;9.03;;;;;;;-1.73;100.00;98161.09;5090590;28;20756;-71
2021/01/15 06:05:25;;;;;;;13.90;9.03;;;;;;;-1.78;100.00;98165.66;5089906;28;20205;-70
2021/01/15 06:07:56;;;;;;;13.03;8.87;;;;;;;-1.89;100.00;98169.34;5091148;28;20290;-70
2021/01/15 06:10:23;;;;;;;17.17;9.00;;;;;;;-1.72;100.00;98172.75;5089908;28;20645;-70
2021/01/15 06:12:51;;;;;;;12.77;9.10;;;;;;;-1.50;100.00;98176.16;5072507;28;20407;-70
2021/01/15 06:15:17;;;;;;;13.97;8.93;;;;;;;-1.55;100.00;98184.25;5072166;28;20654;-70
2021/01/15 06:17:49;;;;;;;15.47;9.47;;;;;;;-1.43;100.00;98179.47;5091026;28;20224;-71
2021/01/15 06:20:23;;;;;;;15.67;9.07;;;;;;;-1.45;100.00;98190.56;5090365;28;20682;-70
2021/01/15 06:22:58;;;;;;;13.43;9.37;;;;;;;-1.60;100.00;98186.91;5080151;28;20283;-71
2021/01/15 06:25:24;;;;;;;18.70;9.60;;;;;;;-1.62;100.00;98192.56;5090949;28;20197;-70
2021/01/15 06:27:55;;;;;;;13.47;8.63;;;;;;;-1.61;100.00;98196.09;5074542;28;20311;-70
2021/01/15 06:30:27;;;;;;;15.03;8.73;;;;;;;-1.43;100.00;98193.00;5076466;28;20197;-70
2021/01/15 06:32:55;;;;;;;15.63;9.37;;;;;;;-1.85;100.00;98194.81;5093912;28;20305;-69
2021/01/15 06:35:31;;;;;;;17.77;9.00;;;;;;;-1.71;100.00;98188.72;5094555;28;20822;-69
2021/01/15 06:38:11;;;;;;;14.43;8.83;;;;;;;-1.80;100.00;98198.38;5083154;28;20220;-70
2021/01/15 06:40:42;;;;;;;15.87;10.17;;;;;;;-1.76;100.00;98198.66;5084094;28;20207;-70
2021/01/15 06:43:11;;;;;;;17.70;10.37;;;;;;;-1.63;100.00;98203.66;5081037;28;20319;-70
2021/01/15 06:45:41;;;;;;;16.27;10.67;;;;;;;-1.57;100.00;98202.63;5084084;28;20197;-71
2021/01/15 06:48:10;;;;;;;16.07;10.13;;;;;;;-1.57;100.00;98208.84;5082235;28;20693;-70
2021/01/15 06:50:38;;;;;;;17.70;9.90;;;;;;;-1.62;100.00;98208.81;5091692;28;20567;-70
2021/01/15 06:53:17;;;;;;;15.60;10.70;;;;;;;-1.64;100.00;98218.25;5093387;28;20639;-70
2021/01/15 06:55:46;;;;;;;15.70;10.27;;;;;;;-1.55;100.00;98216.72;5089898;28;20229;-69
2021/01/15 06:58:37;;;;;;;17.03;10.03;;;;;;;-1.47;100.00;98219.75;5074096;28;20236;-70
2021/01/15 07:01:22;;;;;;;16.40;9.50;;;;;;;-1.52;100.00;98232.44;5078440;28;20204;-72
2021/01/15 07:04:13;;;;;;;12.97;9.80;;;;;;;-1.64;100.00;98223.69;5084195;28;20281;-72
2021/01/15 07:06:56;;;;;;;15.57;10.13;;;;;;;-1.94;100.00;98234.19;5093026;28;20228;-72
2021/01/15 07:09:27;;;;;;;15.77;10.47;;;;;;;-1.71;100.00;98239.28;5092527;28;20208;-71
2021/01/15 07:11:58;;;;;;;16.40;10.67;;;;;;;-1.58;100.00;98236.16;5092678;28;20288;-71
2021/01/15 07:14:27;;;;;;;15.67;10.23;;;;;;;-1.84;100.00;98235.09;5091336;28;20220;-71
2021/01/15 07:16:56;;;;;;;20.17;10.73;;;;;;;-1.84;100.00;98245.13;5092643;28;20447;-72
2021/01/15 07:19:35;;;;;;;17.30;10.53;;;;;;;-1.64;100.00;98245.31;5092230;28;20208;-69
2021/01/15 07:22:01;;;;;;;17.53;9.80;;;;;;;-1.73;100.00;98244.16;5092930;28;20292;-71
2021/01/15 07:24:34;;;;;;;17.07;11.20;;;;;;;-1.88;100.00;98254.81;5091853;28;20204;-71
2021/01/15 07:27:05;;;;;;;24.73;11.07;;;;;;;-1.70;100.00;98247.16;5090885;28;20213;-71
2021/01/15 07:29:48;;;;;;;17.23;10.27;;;;;;;-1.55;100.00;98254.59;5090996;28;20201;-70
2021/01/15 07:32:24;;;;;;;14.30;9.63;;;;;;;-1.28;100.00;98250.75;5090850;28;20227;-70
2021/01/15 07:34:55;;;;;;;17.60;10.20;;;;;;;-1.94;100.00;98253.09;5091269;28;20918;-70
2021/01/15 07:37:27;;;;;;;19.00;10.57;;;;;;;-1.83;100.00;98257.56;5090901;28;20263;-70
2021/01/15 07:40:06;;;;;;;17.23;9.80;;;;;;;-1.93;100.00;98257.47;5091185;28;20205;-70
2021/01/15 07:42:46;;;;;;;16.27;9.63;;;;;;;-1.86;100.00;98271.59;5089754;28;20193;-70
2021/01/15 07:45:42;;;;;;;17.63;10.07;;;;;;;-1.67;100.00;98267.44;5090265;28;20617;-70
2021/01/15 07:48:10;;;;;;;14.13;9.87;;;;;;;-1.73;100.00;98265.78;5089798;28;20777;-70
2021/01/15 07:50:41;;;;;;;14.13;9.73;;;;;;;-1.33;100.00;98271.53;5092026;28;20216;-70
2021/01/15 07:53:18;;;;;;;15.27;10.50;;;;;;;0.28;100.00;98267.81;5089163;28;20240;-71
2021/01/15 07:55:52;;;;;;;15.10;9.23;;;;;;;1.41;100.00;98263.72;5092244;28;20844;-71
2021/01/15 07:58:26;;;;;;;13.77;8.70;;;;;;;2.24;100.00;98261.25;5091090;28;20712;-69
2021/01/15 08:00:52;;;;;;;12.03;8.63;;;;;;;2.67;100.00;98257.69;5092113;28;20196;-69
2021/01/15 08:03:18;;;;;;;13.90;9.70;;;;;;;3.32;100.00;98256.34;5090157;28;20204;-71
2021/01/15 08:05:46;;;;;;;10.47;7.50;;;;;;;3.67;100.00;98264.94;5092074;28;20234;-71
2021/01/15 08:08:16;;;;;;;12.13;8.63;;;;;;;4.05;100.00;98261.22;5093219;28;20252;-69
2021/01/15 08:10:45;;;;;;;10.90;8.13;;;;;;;4.33;100.00;98255.94;5099910;28;20204;-69
2021/01/15 08:13:24;;;;;;;15.07;8.13;;;;;;;4.42;100.00;98265.09;5093498;28;20220;-69
2021/01/15 08:15:50;;;;;;;12.20;8.07;;;;;;;4.63;100.00;98271.91;5092071;28;20238;-69
2021/01/15 08:18:20;;;;;;;11.43;8.23;;;;;;;3.74;100.00;98267.34;5084250;28;20232;-71
2021/01/15 08:20:51;;;;;;;11.97;7.97;;;;;;;3.82;100.00;98267.50;5089702;28;20287;-71
2021/01/15 08:23:21;;;;;;;10.03;7.97;;;;;;;3.61;100.00;98270.75;5085646;28;20296;-70
2021/01/15 08:25:49;;;;;;;9.90;8.10;;;;;;;2.89;100.00;98275.25;5093820;28;20212;-71
2021/01/15 08:28:18;;;;;;;9.37;7.97;;;;;;;2.36;100.00;98283.50;5091111;28;20303;-71
2021/01/15 08:31:13;;;;;;;13.73;9.20;;;;;;;2.28;100.00;98289.53;5073219;28;20243;-70
2021/01/15 08:33:40;;;;;;;25.33;12.67;;;;;;;2.51;100.00;98289.69;5085803;28;20303;-70
2021/01/15 08:36:07;;;;;;;17.93;10.13;;;;;;;2.69;100.00;98286.28;5090250;28;20204;-72
2021/01/15 08:38:37;;;;;;;13.13;8.87;;;;;;;2.62;100.00;98291.25;5090421;28;20721;-71
2021/01/15 08:41:23;;;;;;;11.30;8.47;;;;;;;2.57;100.00;98290.47;5089951;28;20281;-70
2021/01/15 08:43:52;;;;;;;11.63;8.80;;;;;;;2.68;100.00;98289.31;5089253;28;20251;-71
2021/01/15 08:46:20;;;;;;;12.33;8.67;;;;;;;2.47;100.00;98288.59;5091215;28;20205;-71
2021/01/15 08:48:47;;;;;;;10.90;8.60;;;;;;;2.60;100.00;98290.72;5090649;28;20235;-69
2021/01/15 08:51:20;;;;;;;10.40;8.57;;;;;;;2.57;100.00;98295.91;5090223;28;20296;-70
2021/01/15 08:54:07;;;;;;;12.20;8.33;;;;;;;2.49;100.00;98296.50;5090257;28;20282;-71
2021/01/15 08:56:37;;;;;;;11.00;8.50;;;;;;;2.22;100.00;98302.38;5089407;28;20217;-72
2021/01/15 08:59:05;;;;;;;11.40;8.70;;;;;;;2.39;100.00;98297.34;5090065;28;20293;-71
2021/01/15 09:01:35;;;;;;;12.53;8.87;;;;;;;2.20;100.00;98310.00;5090836;28;20282;-71
2021/01/15 09:04:07;;;;;;;15.47;9.30;;;;;;;1.97;100.00;98311.44;5089898;28;20292;-71
2021/01/15 09:06:35;;;;;;;12.50;8.90;;;;;;;1.93;100.00;98313.06;5090583;28;20209;-71
2021/01/15 09:09:04;;;;;;;11.70;8.90;;;;;;;1.95;100.00;98310.09;5086776;28;20290;-71
2021/01/15 09:11:51;;;;;;;12.47;8.47;;;;;;;2.03;100.00;98313.06;5080781;28;20239;-71
2021/01/15 09:14:23;;;;;;;12.70;8.70;;;;;;;2.13;100.00;98314.09;5083597;28;20197;-70
2021/01/15 09:16:52;;;;;;;11.70;8.70;;;;;;;1.88;100.00;98321.25;5077943;28;20266;-71
2021/01/15 09:19:20;;;;;;;13.87;9.70;;;;;;;2.05;100.00;98321.75;5074408;28;20312;-71
2021/01/15 09:21:52;;;;;;;15.80;9.07;;;;;;;1.88;100.00;98323.97;5084778;28;20201;-70
2021/01/15 09:24:21;;;;;;;12.27;9.37;;;;;;;1.64;100.00;98333.03;5090604;28;20225;-71
2021/01/15 09:26:54;;;;;;;14.63;10.37;;;;;;;1.55;100.00;98324.59;5090773;28;20673;-71
2021/01/15 09:29:20;;;;;;;13.33;9.83;;;;;;;1.66;100.00;98328.13;5091469;28;20181;-70
2021/01/15 09:31:52;;;;;;;15.60;10.40;;;;;;;1.66;100.00;98326.22;5073231;28;20216;-70
2021/01/15 09:34:19;;;;;;;15.93;9.93;;;;;;;1.66;100.00;98339.81;5087416;28;20914;-72
2021/01/15 09:36:47;;;;;;;12.33;9.43;;;;;;;2.48;100.00;98328.34;5088150;28;20208;-72
2021/01/15 09:39:16;;;;;;;13.57;9.27;;;;;;;4.20;100.00;98327.69;5090443;28;20232;-71
2021/01/15 09:41:47;;;;;;;13.47;8.77;;;;;;;5.41;100.00;98326.75;5089528;28;20208;-72
2021/01/15 09:44:21;;;;;;;13.40;8.37;;;;;;;5.38;100.00;98322.69;5089444;28;20761;-71
2021/01/15 09:46:49;;;;;;;11.00;8.30;;;;;;;5.90;100.00;98325.06;5089762;28;20235;-71
2021/01/15 09:49:20;;;;;;;10.73;8.50;;;;;;;5.03;100.00;98326.00;5090987;28;20249;-70
2021/01/15 09:51:50;;;;;;;9.13;7.67;;;;;;;4.88;100.00;98328.94;5090039;28;20212;-70
2021/01/15 09:54:16;;;;;;;10.03;8.23;;;;;;;5.76;100.00;98328.88;5073968;28;20215;-70
2021/01/15 09:56:42;;;;;;;12.60;8.67;;;;;;;5.33;100.00;98325.50;5095791;28;20732;-73
2021/01/15 09:59:15;;;;;;;11.10;8.77;;;;;;;5.12;100.00;98324.22;5096372;28;20264;-71
2021/01/15 10:01:42;;;;;;;13.33;8.27;;;;;;;5.72;100.00;98325.91;5087321;28;20196;-71
2021/01/15 10:04:09;;;;;;;12.83;8.97;;;;;;;6.07;100.00;98330.78;5093207;28;20227;-70
2021/01/15 10:06:40;;;;;;;12.83;8.53;;;;;;;6.25;100.00;98320.00;5091129;28;20295;-71
2021/01/15 10:09:07;;;;;;;12.00;8.00;;;;;;;6.21;100.00;98318.97;5078452;28;20663;-70
2021/01/15 10:11:35;;;;;;;12.30;8.13;;;;;;;6.62;100.00;98319.78;5081530;28;20236;-72
2021/01/15 10:14:07;;;;;;;10.07;7.90;;;;;;;6.61;100.00;98324.44;5055445;28;20198;-71
2021/01/15 10:16:42;;;;;;;10.23;8.43;;;;;;;6.42;100.00;98325.69;5073922;28;20248;-71
2021/01/15 10:19:10;;;;;;;10.07;8.33;;;;;;;6.79;100.00;98319.94;5073840;28;20315;-72
2021/01/15 10:21:39;;;;;;;9.70;8.40;;;;;;;6.69;100.00;98326.47;5072491;28;20670;-70
2021/01/15 10:24:07;;;;;;;11.33;8.50;;;;;;;6.68;100.00;98324.03;5090424;28;20290;-71
2021/01/15 10:26:35;;;;;;;12.00;8.57;;;;;;;6.94;100.00;98323.16;5071919;28;20216;-71
2021/01/15 10:29:05;;;;;;;10.80;9.27;;;;;;;6.79;100.00;98314.44;5087792;28;20232;-71
2021/01/15 10:31:44;;;;;;;12.43;8.10;;;;;;;6.83;100.00;98312.72;5085360;28;20202;-70
2021/01/15 10:34:11;;;;;;;9.77;7.90;;;;;;;6.86;100.00;98318.41;5081005;28;20220;-70
2021/01/15 10:36:41;;;;;;;11.40;8.17;;;;;;;6.87;100.00;98321.97;5087075;28;20216;-70
2021/01/15 10:39:08;;;;;;;11.73;8.37;;;;;;;6.28;100.00;98322.94;5089123;28;20383;-72
2021/01/15 10:41:37;;;;;;;12.27;9.53;;;;;;;6.18;100.00;98322.34;5088068;28;20205;-71
2021/01/15 10:44:05;;;;;;;13.47;9.27;;;;;;;5.67;100.00;98319.72;5088788;28;20319;-71
2021/01/15 10:46:37;;;;;;;11.73;9.17;;;;;;;5.33;100.00;98324.69;5087332;28;20197;-70
2021/01/15 10:49:08;;;;;;;12.53;9.43;;;;;;;4.64;100.00;98323.53;5087949;28;20233;-71
2021/01/15 10:51:34;;;;;;;12.50;9.80;;;;;;;4.55;100.00;98319.03;5087977;28;20749;-70
2021/01/15 10:54:00;;;;;;;15.10;9.50;;;;;;;4.98;100.00;98326.06;5088202;28;20615;-69
2021/01/15 10:56:46;;;;;;;11.47;9.00;;;;;;;4.83;100.00;98318.09;5088742;28;20197;-67
2021/01/15 10:59:13;;;;;;;13.10;9.53;;;;;;;4.90;100.00;98321.25;5089131;28;20224;-68
2021/01/15 11:01:47;;;;;;;11.37;9.20;;;;;;;4.86;100.00;98320.22;5081735;28;20201;-70
2021/01/15 11:04:16;;;;;;;14.00;10.20;;;;;;;5.00;100.00;98315.63;5087151;28;20235;-70
2021/01/15 11:06:49;;;;;;;14.27;9.97;;;;;;;5.07;100.00;98318.81;5086038;28;20204;-72
2021/01/15 11:09:18;;;;;;;12.40;9.67;;;;;;;4.95;100.00;98318.44;5069979;28;20224;-72
2021/01/15 11:12:01;;;;;;;12.83;10.07;;;;;;;5.31;100.00;98322.25;5074930;28;20189;-71
2021/01/15 11:14:27;;;;;;;13.17;9.53;;;;;;;5.98;100.00;98324.38;5088798;28;20234;-72
2021/01/15 11:16:57;;;;;;;11.97;9.97;;;;;;;5.81;100.00;98315.91;5086575;28;20216;-72
2021/01/15 11:19:23;;;;;;;16.10;10.83;;;;;;;5.32;100.00;98312.13;5087837;28;20743;-73
2021/01/15 11:21:53;;;;;;;13.90;9.63;;;;;;;5.84;100.00;98309.84;5082840;28;20205;-72
2021/01/15 11:24:22;;;;;;;14.07;10.37;;;;;;;5.49;100.00;98315.91;5079040;28;20239;-71
2021/01/15 11:26:51;;;;;;;16.57;10.20;;;;;;;5.58;100.00;98305.94;5075483;28;20269;-70
2021/01/15 11:29:17;;;;;;;12.70;9.70;;;;;;;5.59;100.00;98302.06;5079787;28;20312;-69
2021/01/15 11:31:44;;;;;;;15.23;9.67;;;;;;;5.75;100.00;98300.66;5074759;28;20628;-70
2021/01/15 11:34:11;;;;;;;12.87;9.67;;;;;;;5.75;100.00;98303.41;5079952;28;20209;-71
2021/01/15 11:36:40;;;;;;;12.40;9.70;;;;;;;5.70;100.00;98300.75;5084043;28;20246;-71
2021/01/15 11:39:12;;;;;;;13.40;9.80;;;;;;;5.54;100.00;98304.06;5085825;28;20381;-70
2021/01/15 11:41:39;;;;;;;11.47;9.60;;;;;;;5.70;100.00;98306.25;5074210;28;20201;-71
2021/01/15 11:44:06;;;;;;;14.20;9.07;;;;;;;5.91;100.00;98302.03;5065371;28;20235;-71
2021/01/15 11:46:36;;;;;;;11.97;9.13;;;;;;;5.30;100.00;98297.91;5072109;28;20288;-71
2021/01/15 11:49:03;;;;;;;17.70;9.83;;;;;;;5.53;100.00;98302.47;5087726;28;20596;-71
2021/01/15 11:51:33;;;;;;;11.87;9.67;;;;;;;5.50;100.00;98303.03;5086269;28;20287;-71
2021/01/15 11:53:59;;;;;;;14.33;9.73;;;;;;;5.55;100.00;98300.22;5087668;28;20204;-71
2021/01/15 11:56:25;;;;;;;13.00;9.43;;;;;;;5.53;100.00;98306.00;5088833;28;20200;-70
2021/01/15 11:58:53;;;;;;;14.37;9.27;;;;;;;5.67;100.00;98298.66;5086695;28;20224;-71
2021/01/15 12:01:20;;;;;;;10.53;8.83;;;;;;;5.40;100.00;98295.81;5088681;28;20899;-71
2021/01/15 12:03:49;;;;;;;13.33;9.43;;;;;;;5.78;100.00;98299.25;5084127;28;20910;-70
2021/01/15 12:06:15;;;;;;;12.43;8.87;;;;;;;5.98;100.00;98288.78;5076076;28;20205;-70
2021/01/15 12:08:41;;;;;;;11.77;8.93;;;;;;;5.99;100.00;98290.38;5076071;28;20257;-70
2021/01/15 12:11:07;;;;;;;12.13;8.80;;;;;;;5.92;100.00;98289.16;5076386;28;20547;-70
2021/01/15 12:13:36;;;;;;;13.60;8.90;;;;;;;5.75;100.00;98292.44;5079813;28;20685;-70